Souda — SVBH5 — position and weather

sailwx.info

Track history (hours):
 
Tides and Currents Weather Stations Pressure Air Temp Water Temp Dewpoint Dewpoint Depression Visibility Wind Speed Wind Dir Waves Ship Positions

Souda

Last reported at 2015-Aug-01 13:33 UTC. Time now 2015-Aug-01 13:51 UTC.
Position N 37°41' E 023°45'.

Length 88 m; draft 5 m.

Type: Tanker. MMSI: 241109000.

Date/timePositionNaut miles runAvg speedWind from/ knotsBaromVisibWave heightAir tempDewpointWater temp
2015-Aug-01 13:33N 37°41' E 023°45'9 9.2
2015-Aug-01 12:33N 37°32' E 023°48'88 8.8
2015-Aug-01 02:32N 36°05' E 024°08'10 9.7
2015-Aug-01 01:31N 35°55' E 024°10'9 9.6
2015-Aug-01 00:33N 35°46' E 024°12'9 9.4
2015-Jul-31 23:33N 35°37' E 024°14'8 0.2
2015-Jul-30 04:15N 35°29' E 024°11'25 8.6
2015-Jul-30 01:21N 35°54' E 024°10'8 9.5
2015-Jul-30 00:33N 36°01' E 024°09'10 9.6
2015-Jul-29 23:33N 36°11' E 024°06'30 9.4
2015-Jul-29 20:21N 36°40' E 024°00'35 9.2
2015-Jul-29 16:34N 37°14' E 023°50'9 9.0
2015-Jul-29 15:33N 37°23' E 023°48'9 9.1
2015-Jul-29 14:34N 37°32' E 023°45'9 9.0
2015-Jul-29 13:34N 37°40' E 023°41'9 9.2
2015-Jul-29 12:34N 37°48' E 023°36'9 9.0
2015-Jul-29 11:34N 37°50' E 023°25'10 9.7
2015-Jul-29 10:31N 37°53' E 023°13'6 0.4
2015-Jul-28 18:33N 37°54' E 023°05'0 0.4
2015-Jul-28 17:14N 37°55' E 023°05'1 0.1
2015-Jul-28 09:33N 37°54' E 023°06'7 7.4
2015-Jul-28 08:33N 37°52' E 023°15'9 8.8
2015-Jul-28 07:33N 37°50' E 023°26'9 8.8
2015-Jul-28 06:33N 37°50' E 023°37'8 8.3
2015-Jul-28 05:33N 37°44' E 023°43'9 9.1
2015-Jul-28 04:33N 37°35' E 023°47'1010.2
2015-Jul-28 03:33N 37°25' E 023°50'10 9.7
2015-Jul-28 02:33N 37°15' E 023°52'10 9.1
2015-Jul-28 01:29N 37°06' E 023°54'9 9.6
2015-Jul-28 00:33N 36°57' E 023°56'10 9.7
2015-Jul-27 23:33N 36°47' E 023°58'24 9.8
2015-Jul-27 21:09N 36°24' E 024°03'6 9.8
2015-Jul-27 20:33N 36°18' E 024°05'10 9.7
2015-Jul-27 19:33N 36°09' E 024°06'13 9.5
2015-Jul-27 18:10N 35°56' E 024°10'9 9.3
2015-Jul-27 17:12N 35°47' E 024°12'6 9.5
2015-Jul-27 16:32N 35°41' E 024°13'11 0.4
2015-Jul-26 11:32N 35°30' E 024°12'58 9.5
2015-Jul-26 05:24N 36°28' E 024°03'9 9.4
2015-Jul-26 04:29N 36°36' E 024°01'9 9.5
2015-Jul-26 03:33N 36°45' E 023°59'9 9.4
2015-Jul-26 02:33N 36°54' E 023°57'9 9.0
2015-Jul-26 01:33N 37°03' E 023°54'9 8.8
2015-Jul-26 00:33N 37°11' E 023°51'9 8.7
2015-Jul-25 23:33N 37°20' E 023°49'9 8.8
2015-Jul-25 22:33N 37°28' E 023°46'9 9.4
2015-Jul-25 21:33N 37°37' E 023°42'9 9.5
2015-Jul-25 20:33N 37°46' E 023°38'8 7.8
2015-Jul-25 19:33N 37°50' E 023°29'9 9.2
2015-Jul-25 18:33N 37°52' E 023°17'10 0.6
2015-Jul-25 02:28N 37°55' E 023°06'1 0.0
2015-Jul-24 07:18N 37°54' E 023°06'7 7.6
2015-Jul-24 06:25N 37°52' E 023°14'8 9.7
2015-Jul-24 05:33N 37°51' E 023°25'10 9.8
2015-Jul-24 04:33N 37°49' E 023°37'9 9.3
2015-Jul-24 03:33N 37°42' E 023°44'1010.0
2015-Jul-24 02:33N 37°32' E 023°48'10 9.8
2015-Jul-24 01:33N 37°23' E 023°50'10 9.9
2015-Jul-24 00:33N 37°13' E 023°52'  
Track history (hours):
 
Tides and Currents Weather Stations Pressure Air Temp Water Temp Dewpoint Dewpoint Depression Visibility Wind Speed Wind Dir Waves Ship Positions

Souda

Last reported at 2015-Aug-01 13:33 UTC. Time now 2015-Aug-01 13:51 UTC.
Position N 37°41' E 023°45'.

Length 88 m; draft 5 m.

Type: Tanker. MMSI: 241109000.

Date/timePositionNaut miles runAvg speedWind from/ knotsBaromVisibWave heightAir tempDewpointWater temp
2015-Aug-01 13:33N 37°41' E 023°45'9 9.2
2015-Aug-01 12:33N 37°32' E 023°48'88 8.8
2015-Aug-01 02:32N 36°05' E 024°08'10 9.7
2015-Aug-01 01:31N 35°55' E 024°10'9 9.6
2015-Aug-01 00:33N 35°46' E 024°12'9 9.4
2015-Jul-31 23:33N 35°37' E 024°14'8 0.2
2015-Jul-30 04:15N 35°29' E 024°11'25 8.6
2015-Jul-30 01:21N 35°54' E 024°10'8 9.5
2015-Jul-30 00:33N 36°01' E 024°09'10 9.6
2015-Jul-29 23:33N 36°11' E 024°06'30 9.4
2015-Jul-29 20:21N 36°40' E 024°00'35 9.2
2015-Jul-29 16:34N 37°14' E 023°50'9 9.0
2015-Jul-29 15:33N 37°23' E 023°48'9 9.1
2015-Jul-29 14:34N 37°32' E 023°45'9 9.0
2015-Jul-29 13:34N 37°40' E 023°41'9 9.2
2015-Jul-29 12:34N 37°48' E 023°36'9 9.0
2015-Jul-29 11:34N 37°50' E 023°25'10 9.7
2015-Jul-29 10:31N 37°53' E 023°13'6 0.4
2015-Jul-28 18:33N 37°54' E 023°05'0 0.4
2015-Jul-28 17:14N 37°55' E 023°05'1 0.1
2015-Jul-28 09:33N 37°54' E 023°06'7 7.4
2015-Jul-28 08:33N 37°52' E 023°15'9 8.8
2015-Jul-28 07:33N 37°50' E 023°26'9 8.8
2015-Jul-28 06:33N 37°50' E 023°37'8 8.3
2015-Jul-28 05:33N 37°44' E 023°43'9 9.1
2015-Jul-28 04:33N 37°35' E 023°47'1010.2
2015-Jul-28 03:33N 37°25' E 023°50'10 9.7
2015-Jul-28 02:33N 37°15' E 023°52'10 9.1
2015-Jul-28 01:29N 37°06' E 023°54'9 9.6
2015-Jul-28 00:33N 36°57' E 023°56'10 9.7
2015-Jul-27 23:33N 36°47' E 023°58'24 9.8
2015-Jul-27 21:09N 36°24' E 024°03'6 9.8
2015-Jul-27 20:33N 36°18' E 024°05'10 9.7
2015-Jul-27 19:33N 36°09' E 024°06'13 9.5
2015-Jul-27 18:10N 35°56' E 024°10'9 9.3
2015-Jul-27 17:12N 35°47' E 024°12'6 9.5
2015-Jul-27 16:32N 35°41' E 024°13'11 0.4
2015-Jul-26 11:32N 35°30' E 024°12'58 9.5
2015-Jul-26 05:24N 36°28' E 024°03'9 9.4
2015-Jul-26 04:29N 36°36' E 024°01'9 9.5
2015-Jul-26 03:33N 36°45' E 023°59'9 9.4
2015-Jul-26 02:33N 36°54' E 023°57'9 9.0
2015-Jul-26 01:33N 37°03' E 023°54'9 8.8
2015-Jul-26 00:33N 37°11' E 023°51'9 8.7
2015-Jul-25 23:33N 37°20' E 023°49'9 8.8
2015-Jul-25 22:33N 37°28' E 023°46'9 9.4
2015-Jul-25 21:33N 37°37' E 023°42'9 9.5
2015-Jul-25 20:33N 37°46' E 023°38'8 7.8
2015-Jul-25 19:33N 37°50' E 023°29'9 9.2
2015-Jul-25 18:33N 37°52' E 023°17'10 0.6
2015-Jul-25 02:28N 37°55' E 023°06'1 0.0
2015-Jul-24 07:18N 37°54' E 023°06'7 7.6
2015-Jul-24 06:25N 37°52' E 023°14'8 9.7
2015-Jul-24 05:33N 37°51' E 023°25'10 9.8
2015-Jul-24 04:33N 37°49' E 023°37'9 9.3
2015-Jul-24 03:33N 37°42' E 023°44'1010.0
2015-Jul-24 02:33N 37°32' E 023°48'10 9.8
2015-Jul-24 01:33N 37°23' E 023°50'10 9.9
2015-Jul-24 00:33N 37°13' E 023°52'  

Dump ship's entire track history